Weather at Dublin Airport

Public forecast

Using degrees Celsius for public forecast. Weather courtesy of forecast.io.

Current aviation weather report (METAR) for Dublin Airport

Retrieved 2021/05/11 20:00 UTC (19 minutes ago):

EIDW 112000Z 14009KT 110V170 9999 FEW018 09/07 Q1004 NOSIG

Aviation forecast (TAF) for Dublin Airport

Retrieved 2021/05/11 18:09 UTC (2 hours ago):

TAF EIDW 111700Z 1118/1218 15013KT 9999 FEW018 BECMG 1118/1120 13007KT BECMG 1120/1122 VRB03KT BECMG 1209/1211 12008KT TEMPO 1212/1218 4000 SHRA BKN012 FEW020CB